createdAt,value
2017-10-25T00:01:02.166Z,92.23
2017-10-25T00:03:28.395Z,92.34
2017-10-25T00:05:54.735Z,91.88
2017-10-25T00:08:20.952Z,92.03
2017-10-25T00:10:47.193Z,92.23
2017-10-25T00:13:13.425Z,92.31
2017-10-25T00:15:39.662Z,91.85
2017-10-25T00:18:05.975Z,91.34
2017-10-25T00:20:32.227Z,90.98
2017-10-25T00:22:58.431Z,91.23
2017-10-25T00:25:24.684Z,91.78
2017-10-25T00:27:50.910Z,92.24
2017-10-25T00:30:17.248Z,91.51
2017-10-25T00:32:43.467Z,91.91
2017-10-25T00:35:09.706Z,91.82
2017-10-25T00:37:35.915Z,91.52
2017-10-25T00:40:02.184Z,92.15
2017-10-25T00:42:28.492Z,92.63
2017-10-25T00:44:54.734Z,92.68
2017-10-25T00:47:20.959Z,92.80
2017-10-25T00:49:47.171Z,92.59
2017-10-25T00:52:13.409Z,92.89
2017-10-25T00:54:39.731Z,92.62
2017-10-25T00:57:05.966Z,92.43
2017-10-25T00:59:32.208Z,92.99
2017-10-25T01:01:58.414Z,92.92
2017-10-25T01:04:24.693Z,93.25
2017-10-25T01:06:51.113Z,93.54
2017-10-25T01:09:17.320Z,93.78
2017-10-25T01:11:43.543Z,93.76
2017-10-25T01:14:09.770Z,93.71
2017-10-25T01:16:35.998Z,93.73
2017-10-25T01:19:02.344Z,93.50
2017-10-25T01:21:28.575Z,93.63
2017-10-25T01:23:54.813Z,93.69
2017-10-25T01:26:21.049Z,93.39
2017-10-25T01:28:47.273Z,93.23
2017-10-25T01:31:13.603Z,93.61
2017-10-25T01:33:39.820Z,93.46
2017-10-25T01:36:06.050Z,93.31
2017-10-25T01:38:32.285Z,93.53
2017-10-25T01:40:58.529Z,93.75
2017-10-25T01:43:24.855Z,94.11
2017-10-25T01:45:51.053Z,94.25
2017-10-25T01:48:17.309Z,94.44
2017-10-25T01:50:43.527Z,94.58
2017-10-25T01:53:09.756Z,94.44
2017-10-25T01:55:36.014Z,94.43
2017-10-25T01:58:02.218Z,94.42
2017-10-25T02:00:28.433Z,94.43
2017-10-25T02:02:54.674Z,94.32
2017-10-25T02:05:20.920Z,94.39
2017-10-25T02:07:47.353Z,94.43
2017-10-25T02:10:13.578Z,94.40
2017-10-25T02:12:39.818Z,94.03
2017-10-25T02:15:06.055Z,93.91
2017-10-25T02:17:32.272Z,93.80
2017-10-25T02:19:58.598Z,93.34
2017-10-25T02:22:24.833Z,93.34
2017-10-25T02:24:51.041Z,93.26
2017-10-25T02:27:17.290Z,93.24
2017-10-25T02:29:43.524Z,92.87
2017-10-25T02:32:09.856Z,93.01
2017-10-25T02:34:36.097Z,93.14
2017-10-25T02:37:02.310Z,93.14
2017-10-25T02:39:28.559Z,92.70
2017-10-25T02:41:54.774Z,92.59
2017-10-25T02:44:21.108Z,92.94
2017-10-25T02:46:47.340Z,92.95
2017-10-25T02:49:13.558Z,92.76
2017-10-25T02:51:39.817Z,92.52
2017-10-25T02:54:06.126Z,92.85
2017-10-25T02:56:32.465Z,92.99
2017-10-25T02:58:58.677Z,93.26
2017-10-25T03:01:24.909Z,93.17
2017-10-25T03:03:51.156Z,93.06
2017-10-25T03:06:17.396Z,93.09
2017-10-25T03:08:43.805Z,93.17
2017-10-25T03:11:10.068Z,93.22
2017-10-25T03:13:36.394Z,92.93
2017-10-25T03:16:02.606Z,93.09
2017-10-25T03:18:28.824Z,93.08
2017-10-25T03:20:55.157Z,93.05
2017-10-25T03:23:21.406Z,92.98
2017-10-25T03:25:47.626Z,93.01
2017-10-25T03:28:13.872Z,93.07
2017-10-25T03:30:40.082Z,93.29
2017-10-25T03:33:06.413Z,93.53
2017-10-25T03:35:32.653Z,93.41
2017-10-25T03:37:58.894Z,92.88
2017-10-25T03:40:25.295Z,92.53
2017-10-25T03:42:55.242Z,93.04
2017-10-25T03:45:21.556Z,93.17
2017-10-25T03:47:47.822Z,93.08
2017-10-25T03:50:14.130Z,93.55
2017-10-25T03:52:40.445Z,93.31
2017-10-25T03:55:06.707Z,93.20
2017-10-25T03:57:32.931Z,93.31
2017-10-25T03:59:59.274Z,93.51
2017-10-25T04:02:25.585Z,93.63
2017-10-25T04:04:51.801Z,93.48
2017-10-25T04:07:18.147Z,93.36
2017-10-25T04:09:44.380Z,93.21
2017-10-25T04:12:10.588Z,93.17
2017-10-25T04:14:36.835Z,93.25
2017-10-25T04:17:03.074Z,93.22
2017-10-25T04:19:29.378Z,93.09
2017-10-25T04:21:55.707Z,92.71
2017-10-25T04:24:21.963Z,92.72
2017-10-25T04:26:48.170Z,92.58
2017-10-25T04:29:14.508Z,92.71
2017-10-25T04:31:40.746Z,93.02
2017-10-25T04:34:06.984Z,92.95
2017-10-25T04:36:33.305Z,93.20
2017-10-25T04:38:59.528Z,93.09
2017-10-25T04:41:25.781Z,93.22
2017-10-25T04:43:52.112Z,93.28
2017-10-25T04:46:18.336Z,93.37
2017-10-25T04:48:44.561Z,93.33
2017-10-25T04:51:10.887Z,93.06
2017-10-25T04:53:37.101Z,92.88
2017-10-25T04:56:03.347Z,93.05
2017-10-25T04:58:29.688Z,93.45
2017-10-25T05:00:56.117Z,93.50
2017-10-25T05:03:22.363Z,93.24
2017-10-25T05:05:48.697Z,93.11
2017-10-25T05:08:14.901Z,93.27
2017-10-25T05:10:41.132Z,93.72
2017-10-25T05:13:07.376Z,93.71
2017-10-25T05:15:33.599Z,93.49
2017-10-25T05:17:59.931Z,93.74
2017-10-25T05:20:26.162Z,93.67
2017-10-25T05:22:52.403Z,93.20
2017-10-25T05:25:18.723Z,93.44
2017-10-25T05:27:44.953Z,93.62
2017-10-25T05:30:11.190Z,93.49
2017-10-25T05:32:37.515Z,93.51
2017-10-25T05:35:04.164Z,93.53
2017-10-25T05:37:30.376Z,93.75
2017-10-25T05:39:56.695Z,93.31
2017-10-25T05:42:22.943Z,93.18
2017-10-25T05:44:49.183Z,93.61
2017-10-25T05:47:15.554Z,93.80
2017-10-25T05:49:41.820Z,93.78
2017-10-25T05:52:08.070Z,93.80
2017-10-25T05:54:34.385Z,93.37
2017-10-25T05:57:00.629Z,93.29
2017-10-25T05:59:26.873Z,93.63
2017-10-25T06:01:53.189Z,93.58
2017-10-25T06:04:19.395Z,93.97
2017-10-25T06:06:45.963Z,93.93
2017-10-25T06:09:12.301Z,93.81
2017-10-25T06:11:38.520Z,93.89
2017-10-25T06:14:04.727Z,93.99
2017-10-25T06:16:31.091Z,93.65
2017-10-25T06:18:57.320Z,93.90
2017-10-25T06:21:23.548Z,93.79
2017-10-25T06:23:49.873Z,93.73
2017-10-25T06:26:16.110Z,93.84
2017-10-25T06:28:42.360Z,93.62
2017-10-25T06:31:08.669Z,93.50
2017-10-25T06:33:34.924Z,93.60
2017-10-25T06:36:01.223Z,93.55
2017-10-25T06:38:27.565Z,93.42
2017-10-25T06:40:54.005Z,93.67
2017-10-25T06:43:20.239Z,93.75
2017-10-25T06:45:46.537Z,93.27
2017-10-25T06:48:12.790Z,93.17
2017-10-25T06:50:39.131Z,92.87
2017-10-25T06:53:05.437Z,92.97
2017-10-25T06:55:31.688Z,93.30
2017-10-25T06:57:57.894Z,93.32
2017-10-25T07:00:24.416Z,93.48
2017-10-25T07:02:50.599Z,93.59
2017-10-25T07:05:16.888Z,93.46
2017-10-25T07:07:43.146Z,93.21
2017-10-25T07:10:09.360Z,93.27
2017-10-25T07:12:35.580Z,93.23
2017-10-25T07:15:01.813Z,93.21
2017-10-25T07:17:28.051Z,93.07
2017-10-25T07:19:54.278Z,93.37
2017-10-25T07:22:20.597Z,93.54
2017-10-25T07:24:46.861Z,93.21
2017-10-25T07:27:13.064Z,93.35
2017-10-25T07:29:39.412Z,92.98
2017-10-25T07:32:05.639Z,92.83
2017-10-25T07:34:31.866Z,93.09
2017-10-25T07:36:58.209Z,92.60
2017-10-25T07:39:24.421Z,92.17
2017-10-25T07:41:50.650Z,91.28
2017-10-25T07:44:16.970Z,91.46
2017-10-25T07:46:43.184Z,91.64
2017-10-25T07:49:09.362Z,91.41
2017-10-25T07:51:35.665Z,91.44
2017-10-25T07:54:01.931Z,90.71
2017-10-25T07:56:28.226Z,91.16
2017-10-25T07:58:54.478Z,91.83
2017-10-25T08:01:20.774Z,91.61
2017-10-25T08:03:47.026Z,92.03
2017-10-25T08:06:13.267Z,92.00
2017-10-25T08:08:39.592Z,91.75
2017-10-25T08:11:05.809Z,91.54
2017-10-25T08:13:32.016Z,91.87
2017-10-25T08:15:58.292Z,91.87
2017-10-25T08:18:24.513Z,92.09
2017-10-25T08:20:50.740Z,91.24
2017-10-25T08:23:17.075Z,91.03
2017-10-25T08:25:43.384Z,90.34
2017-10-25T08:28:09.622Z,90.80
2017-10-25T08:30:35.848Z,91.21
2017-10-25T08:33:02.073Z,91.08
2017-10-25T08:35:28.309Z,89.65
2017-10-25T08:37:54.504Z,89.43
2017-10-25T08:40:20.747Z,90.92
2017-10-25T08:42:47.023Z,90.05
2017-10-25T08:45:13.356Z,89.09
2017-10-25T08:47:39.573Z,89.20
2017-10-25T08:50:05.797Z,88.96
2017-10-25T08:52:32.046Z,89.25
2017-10-25T08:54:58.247Z,90.04
2017-10-25T08:57:24.510Z,89.06
2017-10-25T08:59:50.840Z,89.38
2017-10-25T09:02:17.069Z,89.32
2017-10-25T09:04:43.356Z,89.86
2017-10-25T09:07:09.643Z,89.90
2017-10-25T09:09:35.954Z,90.13
2017-10-25T09:12:02.167Z,89.13
2017-10-25T09:14:28.413Z,88.69
2017-10-25T09:16:54.760Z,88.46
2017-10-25T09:19:20.953Z,88.67
2017-10-25T09:21:47.237Z,89.14
2017-10-25T09:24:13.732Z,88.82
2017-10-25T09:26:39.961Z,89.07
2017-10-25T09:29:06.202Z,89.27
2017-10-25T09:31:32.436Z,87.34
2017-10-25T09:33:58.695Z,86.82
2017-10-25T09:36:24.987Z,87.89
2017-10-25T09:38:51.205Z,86.59
2017-10-25T09:41:17.462Z,87.02
2017-10-25T09:43:43.677Z,86.60
2017-10-25T09:46:09.916Z,86.61
2017-10-25T09:48:36.268Z,86.41
2017-10-25T09:51:02.581Z,87.08
2017-10-25T09:53:28.786Z,86.34
2017-10-25T09:55:55.165Z,86.26
2017-10-25T09:58:21.468Z,85.19
2017-10-25T10:00:47.805Z,86.72
2017-10-25T10:03:14.013Z,86.28
2017-10-25T10:05:40.356Z,85.99
2017-10-25T10:08:06.593Z,85.55
2017-10-25T10:10:32.854Z,86.51
2017-10-25T10:12:59.180Z,87.20
2017-10-25T10:15:25.606Z,87.01
2017-10-25T10:17:51.965Z,85.60
2017-10-25T10:20:18.277Z,86.87
2017-10-25T10:22:44.615Z,86.58
2017-10-25T10:25:10.999Z,87.18
2017-10-25T10:27:37.367Z,86.09
2017-10-25T10:30:03.585Z,86.53
2017-10-25T10:32:29.792Z,86.41
2017-10-25T10:34:56.054Z,85.53
2017-10-25T10:37:22.374Z,86.27
2017-10-25T10:39:48.599Z,86.82
2017-10-25T10:42:14.824Z,87.22
2017-10-25T10:44:41.060Z,86.72
2017-10-25T10:47:07.276Z,85.29
2017-10-25T10:49:34.268Z,86.08
2017-10-25T10:52:00.475Z,87.00
2017-10-25T10:54:26.715Z,85.92
2017-10-25T10:56:52.940Z,86.83
2017-10-25T10:59:19.237Z,85.58
2017-10-25T11:01:45.482Z,86.42
2017-10-25T11:04:11.713Z,85.95
2017-10-25T11:06:37.940Z,85.17
2017-10-25T11:09:04.138Z,85.18
2017-10-25T11:11:30.420Z,85.23
2017-10-25T11:13:56.728Z,86.16
2017-10-25T11:16:22.958Z,84.56
2017-10-25T11:18:49.186Z,84.52
2017-10-25T11:21:15.408Z,84.18
2017-10-25T11:23:41.651Z,84.73
2017-10-25T11:26:07.990Z,84.52
2017-10-25T11:28:34.207Z,84.53
2017-10-25T11:31:00.420Z,82.65
2017-10-25T11:33:26.674Z,82.74
2017-10-25T11:35:52.985Z,83.56
2017-10-25T11:38:19.223Z,83.71
2017-10-25T11:40:45.472Z,83.83
2017-10-25T11:43:11.703Z,82.37
2017-10-25T11:45:37.940Z,82.09
2017-10-25T11:48:04.153Z,80.52
2017-10-25T11:50:30.485Z,81.56
2017-10-25T11:52:56.707Z,82.53
2017-10-25T11:55:22.964Z,82.51
2017-10-25T11:57:49.193Z,82.07
2017-10-25T12:00:15.438Z,81.50
2017-10-25T12:02:41.766Z,80.02
2017-10-25T12:05:08.072Z,80.42
2017-10-25T12:07:35.420Z,80.43
2017-10-25T12:10:01.875Z,80.37
2017-10-25T12:12:28.110Z,79.44
2017-10-25T12:14:54.429Z,80.44
2017-10-25T12:17:20.666Z,80.19
2017-10-25T12:19:46.908Z,80.47
2017-10-25T12:22:13.208Z,78.93
2017-10-25T12:24:39.543Z,80.04
2017-10-25T12:27:05.745Z,78.73
2017-10-25T12:29:32.079Z,78.53
2017-10-25T12:31:58.357Z,77.88
2017-10-25T12:34:24.699Z,77.77
2017-10-25T12:36:51.031Z,78.77
2017-10-25T12:39:17.341Z,78.53
2017-10-25T12:41:43.585Z,78.25
2017-10-25T12:44:09.809Z,77.95
2017-10-25T12:46:36.054Z,78.60
2017-10-25T12:49:02.264Z,79.29
2017-10-25T12:51:28.476Z,78.53
2017-10-25T12:53:54.720Z,78.19
2017-10-25T12:56:20.967Z,78.63
2017-10-25T12:58:47.218Z,77.54
2017-10-25T13:01:13.450Z,78.47
2017-10-25T13:03:39.678Z,77.84
2017-10-25T13:06:05.968Z,77.04
2017-10-25T13:08:32.164Z,78.88
2017-10-25T13:10:58.451Z,78.88
2017-10-25T13:13:24.745Z,78.84
2017-10-25T13:15:50.988Z,78.13
2017-10-25T13:18:17.281Z,78.45
2017-10-25T13:20:43.578Z,79.52
2017-10-25T13:23:09.891Z,79.14
2017-10-25T13:25:36.273Z,78.43
2017-10-25T13:28:02.572Z,78.50
2017-10-25T13:30:28.959Z,78.46
2017-10-25T13:32:55.179Z,78.35
2017-10-25T13:35:22.197Z,77.67
2017-10-25T13:37:48.510Z,78.46
2017-10-25T13:40:14.827Z,78.79
2017-10-25T13:42:41.143Z,79.24
2017-10-25T13:45:07.410Z,79.40
2017-10-25T13:47:33.714Z,79.46
2017-10-25T13:49:59.962Z,78.70
2017-10-25T13:52:26.271Z,79.41
2017-10-25T13:54:52.610Z,79.72
2017-10-25T13:57:19.075Z,79.75
